PWSweather.com
Personal Weather Stations
Station Observations
KCOBOOMER
Belmont, Pueblo, CO 81001

BelmontPueblo, CO 81001

Lat: 38.2977486, Lon: -104.5754318

Elevation: 4795

Station Type: Davis Vantage Pro 2

http://www.puebloweather.net

Latest ConditionsUpdated 6:22:46 AM MDT Thursday, Jun 29, 2017
Currently Today's Max Today's Min Today's Average
Temperature 61.5°F16.4°C 73.9°F23.3°C 61.5°F16.4°C 67.7°F19.8°C
Dew Point 50.0°F10.0°C 51.3°F10.7°C 48.7°F9.3°C 49.9°F9.9°C
Winds Calm Calm 15.9 mph NNE25.6 kmh NNE - 6.5 mph 10.5 kmh
Wind Gusts 2.0 mph3.2 kmh 31.8 mph51.2 kmh - -
Humidity 66% 66% 41% 53%
Pressure 29.68 in1005.1 mb 29.68 in1005.1 mb 29.42 in996.3 mb -
Hour Temp Dew Point Humidity Winds Wind Gusts Pressure Precip Precip Rate Daily Precip Total
06:22 AM 61.5°F16.4°C 50.0°F10.0°C 66% Calm Calm 2.0 mph3.2 kmh 29.68 in1005.1 mb 0.00 in0.0 mm 0.00 in0.0 mm 0.00 in0.0 mm
06:17 AM 61.5°F16.4°C 50.0°F10.0°C 66% Calm Calm 4.3 mph6.9 kmh 29.67 in1004.7 mb 0.00 in0.0 mm 0.00 in0.0 mm 0.00 in0.0 mm
06:12 AM 61.7°F16.5°C 50.2°F10.1°C 66% 0.2 mph NW0.3 kmh NW 5.4 mph8.7 kmh 29.67 in1004.7 mb 0.00 in0.0 mm 0.00 in0.0 mm 0.00 in0.0 mm
06:07 AM 62.1°F16.7°C 50.2°F10.1°C 65% 0.2 mph NW0.3 kmh NW 4.3 mph6.9 kmh 29.67 in1004.7 mb 0.00 in0.0 mm 0.00 in0.0 mm 0.00 in0.0 mm
06:02 AM 62.2°F16.8°C 50.0°F10.0°C 64% 0.9 mph NE1.4 kmh NE 6.3 mph10.1 kmh 29.66 in1004.4 mb 0.00 in0.0 mm 0.00 in0.0 mm 0.00 in0.0 mm
05:57 AM 62.8°F17.1°C 50.0°F10.0°C 63% Calm Calm 1.1 mph1.8 kmh 29.66 in1004.4 mb 0.00 in0.0 mm 0.00 in0.0 mm 0.00 in0.0 mm
05:52 AM 63.3°F17.4°C 49.6°F9.8°C 61% Calm Calm -- 29.65 in1004.1 mb 0.00 in0.0 mm 0.00 in0.0 mm 0.00 in0.0 mm
05:47 AM 63.3°F17.4°C 49.3°F9.6°C 60% Calm Calm -- 29.65 in1004.1 mb 0.00 in0.0 mm 0.00 in0.0 mm 0.00 in0.0 mm
05:42 AM 63.3°F17.4°C 49.6°F9.8°C 61% Calm Calm -- 29.64 in1003.7 mb 0.00 in0.0 mm 0.00 in0.0 mm 0.00 in0.0 mm
05:37 AM 63.7°F17.6°C 49.5°F9.7°C 60% Calm Calm -- 29.64 in1003.7 mb 0.00 in0.0 mm 0.00 in0.0 mm 0.00 in0.0 mm
05:32 AM 64.0°F17.8°C 49.5°F9.7°C 59% Calm Calm 1.1 mph1.8 kmh 29.63 in1003.4 mb 0.00 in0.0 mm 0.00 in0.0 mm 0.00 in0.0 mm
05:27 AM 64.4°F18.0°C 49.3°F9.6°C 58% 2.2 mph NE3.5 kmh NE 8.5 mph13.7 kmh 29.62 in1003.0 mb 0.00 in0.0 mm 0.00 in0.0 mm 0.00 in0.0 mm
05:22 AM 64.6°F18.1°C 49.5°F9.7°C 58% 1.3 mph NE2.1 kmh NE 4.3 mph6.9 kmh 29.62 in1003.0 mb 0.00 in0.0 mm 0.00 in0.0 mm 0.00 in0.0 mm
05:17 AM 64.8°F18.2°C 49.6°F9.8°C 58% 3.8 mph NE6.1 kmh NE 9.6 mph15.4 kmh 29.62 in1003.0 mb 0.00 in0.0 mm 0.00 in0.0 mm 0.00 in0.0 mm
05:12 AM 64.9°F18.3°C 49.3°F9.6°C 57% 2.9 mph NE4.7 kmh NE 10.5 mph16.9 kmh 29.62 in1003.0 mb 0.00 in0.0 mm 0.00 in0.0 mm 0.00 in0.0 mm
05:07 AM 65.1°F18.4°C 49.5°F9.7°C 57% 4.0 mph NE6.4 kmh NE 8.5 mph13.7 kmh 29.61 in1002.7 mb 0.00 in0.0 mm 0.00 in0.0 mm 0.00 in0.0 mm
05:02 AM 65.5°F18.6°C 49.3°F9.6°C 56% 4.5 mph NE7.2 kmh NE 9.6 mph15.4 kmh 29.60 in1002.4 mb 0.00 in0.0 mm 0.00 in0.0 mm 0.00 in0.0 mm
04:57 AM 65.8°F18.8°C 49.3°F9.6°C 55% 4.7 mph NNE7.6 kmh NNE 13.9 mph22.4 kmh 29.60 in1002.4 mb 0.00 in0.0 mm 0.00 in0.0 mm 0.00 in0.0 mm
04:52 AM 66.2°F19.0°C 49.6°F9.8°C 55% 6.7 mph NNE10.8 kmh NNE 14.8 mph23.8 kmh 29.59 in1002.0 mb 0.00 in0.0 mm 0.00 in0.0 mm 0.00 in0.0 mm
04:47 AM 66.6°F19.2°C 49.5°F9.7°C 54% 7.2 mph N11.6 kmh N 12.8 mph20.6 kmh 29.59 in1002.0 mb 0.00 in0.0 mm 0.00 in0.0 mm 0.00 in0.0 mm
04:42 AM 66.9°F19.4°C 49.8°F9.9°C 54% 7.8 mph N12.6 kmh N 18.1 mph29.1 kmh 29.59 in1002.0 mb 0.00 in0.0 mm 0.00 in0.0 mm 0.00 in0.0 mm
04:37 AM 67.1°F19.5°C 49.8°F9.9°C 54% 9.4 mph NNE15.1 kmh NNE 15.9 mph25.6 kmh 29.59 in1002.0 mb 0.00 in0.0 mm 0.00 in0.0 mm 0.00 in0.0 mm
04:32 AM 67.3°F19.6°C 50.0°F10.0°C 54% 9.8 mph N15.8 kmh N 17.0 mph27.4 kmh 29.58 in1001.7 mb 0.00 in0.0 mm 0.00 in0.0 mm 0.00 in0.0 mm
04:27 AM 67.3°F19.6°C 50.0°F10.0°C 54% 10.5 mph NNE16.9 kmh NNE 19.0 mph30.6 kmh 29.58 in1001.7 mb 0.00 in0.0 mm 0.00 in0.0 mm 0.00 in0.0 mm
04:22 AM 67.5°F19.7°C 49.8°F9.9°C 53% 6.7 mph 10.8 kmh 15.9 mph25.6 kmh 29.57 in1001.4 mb 0.00 in0.0 mm 0.00 in0.0 mm 0.00 in0.0 mm
04:17 AM 67.6°F19.8°C 50.4°F10.2°C 54% 8.3 mph NNE13.4 kmh NNE 14.8 mph23.8 kmh 29.57 in1001.4 mb 0.00 in0.0 mm 0.00 in0.0 mm 0.00 in0.0 mm
04:12 AM 67.6°F19.8°C 49.8°F9.9°C 53% 3.4 mph NNE5.5 kmh NNE 10.5 mph16.9 kmh 29.57 in1001.4 mb 0.00 in0.0 mm 0.00 in0.0 mm 0.00 in0.0 mm
04:07 AM 67.6°F19.8°C 49.8°F9.9°C 53% 10.3 mph NE16.6 kmh NE 17.0 mph27.4 kmh 29.57 in1001.4 mb 0.00 in0.0 mm 0.00 in0.0 mm 0.00 in0.0 mm
04:02 AM 67.6°F19.8°C 49.8°F9.9°C 53% 9.8 mph N15.8 kmh N 19.0 mph30.6 kmh 29.56 in1001.0 mb 0.00 in0.0 mm 0.00 in0.0 mm 0.00 in0.0 mm
03:57 AM 67.6°F19.8°C 50.4°F10.2°C 54% 9.2 mph N14.8 kmh N 19.0 mph30.6 kmh 29.55 in1000.7 mb 0.00 in0.0 mm 0.00 in0.0 mm 0.00 in0.0 mm
03:52 AM 67.5°F19.7°C 50.7°F10.4°C 55% 11.0 mph N17.7 kmh N 21.3 mph34.3 kmh 29.55 in1000.7 mb 0.00 in0.0 mm 0.00 in0.0 mm 0.00 in0.0 mm
03:47 AM 67.1°F19.5°C 50.9°F10.5°C 56% 8.9 mph 14.3 kmh 18.1 mph29.1 kmh 29.55 in1000.7 mb 0.00 in0.0 mm 0.00 in0.0 mm 0.00 in0.0 mm
03:42 AM 66.9°F19.4°C 50.7°F10.4°C 56% 10.1 mph N16.3 kmh N 18.1 mph29.1 kmh 29.54 in1000.3 mb 0.00 in0.0 mm 0.00 in0.0 mm 0.00 in0.0 mm
03:37 AM 66.7°F19.3°C 50.5°F10.3°C 56% 10.1 mph 16.3 kmh 22.4 mph36.0 kmh 29.54 in1000.3 mb 0.00 in0.0 mm 0.00 in0.0 mm 0.00 in0.0 mm
03:32 AM 66.6°F19.2°C 50.9°F10.5°C 57% 11.9 mph NNW19.2 kmh NNW 19.0 mph30.6 kmh 29.54 in1000.3 mb 0.00 in0.0 mm 0.00 in0.0 mm 0.00 in0.0 mm
03:27 AM 66.6°F19.2°C 50.9°F10.5°C 57% 10.7 mph NW17.2 kmh NW 23.3 mph37.5 kmh 29.53 in1000.0 mb 0.00 in0.0 mm 0.00 in0.0 mm 0.00 in0.0 mm
03:22 AM 66.4°F19.1°C 50.7°F10.4°C 57% 12.1 mph NW19.5 kmh NW 19.0 mph30.6 kmh 29.53 in1000.0 mb 0.00 in0.0 mm 0.00 in0.0 mm 0.00 in0.0 mm
03:17 AM 66.4°F19.1°C 50.7°F10.4°C 57% 12.1 mph NNW19.5 kmh NNW 20.1 mph32.3 kmh 29.53 in1000.0 mb 0.00 in0.0 mm 0.00 in0.0 mm 0.00 in0.0 mm
03:12 AM 66.4°F19.1°C 50.2°F10.1°C 56% 11.0 mph NNW17.7 kmh NNW 21.3 mph34.3 kmh 29.52 in999.7 mb 0.00 in0.0 mm 0.00 in0.0 mm 0.00 in0.0 mm
03:07 AM 66.2°F19.0°C 50.0°F10.0°C 56% 13.2 mph WNW21.2 kmh WNW 17.0 mph27.4 kmh 29.52 in999.7 mb 0.00 in0.0 mm 0.00 in0.0 mm 0.00 in0.0 mm
03:02 AM 66.0°F18.9°C 49.8°F9.9°C 56% 8.7 mph NW14.0 kmh NW 14.8 mph23.8 kmh 29.51 in999.3 mb 0.00 in0.0 mm 0.00 in0.0 mm 0.00 in0.0 mm
02:57 AM 66.0°F18.9°C 49.8°F9.9°C 56% 6.7 mph NNW10.8 kmh NNW 13.9 mph22.4 kmh 29.51 in999.3 mb 0.00 in0.0 mm 0.00 in0.0 mm 0.00 in0.0 mm
02:52 AM 66.2°F19.0°C 50.0°F10.0°C 56% 6.7 mph NW10.8 kmh NW 13.9 mph22.4 kmh 29.50 in999.0 mb 0.00 in0.0 mm 0.00 in0.0 mm 0.00 in0.0 mm
02:47 AM 66.4°F19.1°C 49.6°F9.8°C 55% 5.8 mph NW9.3 kmh NW 11.6 mph18.7 kmh 29.50 in999.0 mb 0.00 in0.0 mm 0.00 in0.0 mm 0.00 in0.0 mm
02:42 AM 66.6°F19.2°C 49.8°F9.9°C 55% 6.7 mph NW10.8 kmh NW 11.6 mph18.7 kmh 29.50 in999.0 mb 0.00 in0.0 mm 0.00 in0.0 mm 0.00 in0.0 mm
02:37 AM 66.7°F19.3°C 49.6°F9.8°C 54% 2.9 mph NW4.7 kmh NW 12.8 mph20.6 kmh 29.50 in999.0 mb 0.00 in0.0 mm 0.00 in0.0 mm 0.00 in0.0 mm
02:32 AM 66.9°F19.4°C 49.8°F9.9°C 54% 8.3 mph NNW13.4 kmh NNW 14.8 mph23.8 kmh 29.50 in999.0 mb 0.00 in0.0 mm 0.00 in0.0 mm 0.00 in0.0 mm
02:27 AM 67.3°F19.6°C 50.0°F10.0°C 54% 4.9 mph NW7.9 kmh NW 10.5 mph16.9 kmh 29.50 in999.0 mb 0.00 in0.0 mm 0.00 in0.0 mm 0.00 in0.0 mm
02:22 AM 67.5°F19.7°C 49.8°F9.9°C 53% 3.4 mph NW5.5 kmh NW 6.3 mph10.1 kmh 29.50 in999.0 mb 0.00 in0.0 mm 0.00 in0.0 mm 0.00 in0.0 mm
02:17 AM 67.6°F19.8°C 49.5°F9.7°C 52% 4.7 mph NW7.6 kmh NW 11.6 mph18.7 kmh 29.50 in999.0 mb 0.00 in0.0 mm 0.00 in0.0 mm 0.00 in0.0 mm
02:12 AM 68.0°F20.0°C 50.2°F10.1°C 53% 3.8 mph NW6.1 kmh NW 12.8 mph20.6 kmh 29.49 in998.6 mb 0.00 in0.0 mm 0.00 in0.0 mm 0.00 in0.0 mm
02:07 AM 68.2°F20.1°C 49.8°F9.9°C 52% 10.3 mph NW16.6 kmh NW 14.8 mph23.8 kmh 29.49 in998.6 mb 0.00 in0.0 mm 0.00 in0.0 mm 0.00 in0.0 mm
02:02 AM 68.4°F20.2°C 49.5°F9.7°C 51% 11.2 mph NW18.0 kmh NW 13.9 mph22.4 kmh 29.49 in998.6 mb 0.00 in0.0 mm 0.00 in0.0 mm 0.00 in0.0 mm
01:57 AM 68.4°F20.2°C 49.5°F9.7°C 51% 5.8 mph NW9.3 kmh NW 17.0 mph27.4 kmh 29.49 in998.6 mb 0.00 in0.0 mm 0.00 in0.0 mm 0.00 in0.0 mm
01:52 AM 68.7°F20.4°C 49.8°F9.9°C 51% 5.6 mph NW9.0 kmh NW 12.8 mph20.6 kmh 29.49 in998.6 mb 0.00 in0.0 mm 0.00 in0.0 mm 0.00 in0.0 mm
01:47 AM 69.3°F20.7°C 49.3°F9.6°C 49% 3.4 mph WSW5.5 kmh WSW 7.4 mph11.9 kmh 29.49 in998.6 mb 0.00 in0.0 mm 0.00 in0.0 mm 0.00 in0.0 mm
01:42 AM 69.4°F20.8°C 49.5°F9.7°C 49% 4.5 mph NW7.2 kmh NW 14.8 mph23.8 kmh 29.49 in998.6 mb 0.00 in0.0 mm 0.00 in0.0 mm 0.00 in0.0 mm
01:37 AM 69.8°F21.0°C 49.3°F9.6°C 48% 4.7 mph WNW7.6 kmh WNW 10.5 mph16.9 kmh 29.49 in998.6 mb 0.00 in0.0 mm 0.00 in0.0 mm 0.00 in0.0 mm
01:32 AM 70.2°F21.2°C 49.6°F9.8°C 48% 5.1 mph NW8.2 kmh NW 21.3 mph34.3 kmh 29.48 in998.3 mb 0.00 in0.0 mm 0.00 in0.0 mm 0.00 in0.0 mm
01:27 AM 70.3°F21.3°C 49.1°F9.5°C 47% 8.9 mph NW14.3 kmh NW 22.4 mph36.0 kmh 29.47 in998.0 mb 0.00 in0.0 mm 0.00 in0.0 mm 0.00 in0.0 mm
01:22 AM 70.5°F21.4°C 49.3°F9.6°C 47% 13.4 mph NW21.6 kmh NW 22.4 mph36.0 kmh 29.47 in998.0 mb 0.00 in0.0 mm 0.00 in0.0 mm 0.00 in0.0 mm
01:17 AM 70.7°F21.5°C 49.5°F9.7°C 47% 5.4 mph N8.7 kmh N 12.8 mph20.6 kmh 29.48 in998.3 mb 0.00 in0.0 mm 0.00 in0.0 mm 0.00 in0.0 mm
01:12 AM 71.1°F21.7°C 49.8°F9.9°C 47% 0.4 mph WNW0.6 kmh WNW 2.0 mph3.2 kmh 29.47 in998.0 mb 0.00 in0.0 mm 0.00 in0.0 mm 0.00 in0.0 mm
01:07 AM 71.2°F21.8°C 50.0°F10.0°C 47% 0.9 mph WNW1.4 kmh WNW 8.5 mph13.7 kmh 29.47 in998.0 mb 0.00 in0.0 mm 0.00 in0.0 mm 0.00 in0.0 mm
01:02 AM 71.6°F22.0°C 50.4°F10.2°C 47% 2.2 mph WNW3.5 kmh WNW 5.4 mph8.7 kmh 29.47 in998.0 mb 0.00 in0.0 mm 0.00 in0.0 mm 0.00 in0.0 mm
12:57 AM 72.1°F22.3°C 50.2°F10.1°C 46% 2.2 mph WNW3.5 kmh WNW 8.5 mph13.7 kmh 29.47 in998.0 mb 0.00 in0.0 mm 0.00 in0.0 mm 0.00 in0.0 mm
12:52 AM 72.7°F22.6°C 50.7°F10.4°C 46% 3.1 mph W5.0 kmh W 10.5 mph16.9 kmh 29.47 in998.0 mb 0.00 in0.0 mm 0.00 in0.0 mm 0.00 in0.0 mm
12:47 AM 73.2°F22.9°C 51.3°F10.7°C 46% 0.4 mph N0.6 kmh N 4.3 mph6.9 kmh 29.46 in997.6 mb 0.00 in0.0 mm 0.00 in0.0 mm 0.00 in0.0 mm
12:42 AM 73.2°F22.9°C 50.5°F10.3°C 45% 3.8 mph N6.1 kmh N 10.5 mph16.9 kmh 29.45 in997.3 mb 0.00 in0.0 mm 0.00 in0.0 mm 0.00 in0.0 mm
12:37 AM 73.2°F22.9°C 50.5°F10.3°C 45% 12.3 mph N19.8 kmh N 22.4 mph36.0 kmh 29.45 in997.3 mb 0.00 in0.0 mm 0.00 in0.0 mm 0.00 in0.0 mm
12:32 AM 73.2°F22.9°C 50.5°F10.3°C 45% 12.8 mph NE20.6 kmh NE 23.3 mph37.5 kmh 29.44 in997.0 mb 0.00 in0.0 mm 0.00 in0.0 mm 0.00 in0.0 mm
12:27 AM 73.2°F22.9°C 50.0°F10.0°C 44% 14.3 mph NNW23.0 kmh NNW 25.5 mph41.0 kmh 29.44 in997.0 mb 0.00 in0.0 mm 0.00 in0.0 mm 0.00 in0.0 mm
12:22 AM 73.2°F22.9°C 50.0°F10.0°C 44% 15.7 mph 25.3 kmh 26.6 mph42.8 kmh 29.44 in997.0 mb 0.00 in0.0 mm 0.00 in0.0 mm 0.00 in0.0 mm
12:17 AM 73.4°F23.0°C 49.5°F9.7°C 43% 15.9 mph 25.6 kmh 31.8 mph51.2 kmh 29.43 in996.6 mb 0.00 in0.0 mm 0.00 in0.0 mm 0.00 in0.0 mm
12:12 AM 73.6°F23.1°C 49.6°F9.8°C 43% 15.9 mph NNE25.6 kmh NNE 27.5 mph44.3 kmh 29.43 in996.6 mb 0.00 in0.0 mm 0.00 in0.0 mm 0.00 in0.0 mm
12:07 AM 73.8°F23.2°C 49.3°F9.6°C 42% 14.3 mph NNE23.0 kmh NNE 29.8 mph48.0 kmh 29.42 in996.3 mb 0.00 in0.0 mm 0.00 in0.0 mm 0.00 in0.0 mm
12:02 AM 73.9°F23.3°C 48.7°F9.3°C 41% 14.3 mph NNE23.0 kmh NNE 29.8 mph48.0 kmh 29.43 in996.6 mb 0.00 in0.0 mm 0.00 in0.0 mm 0.00 in0.0 mm